< < Back
Terminal Aerodrome Forecast


Current Version              Previous Versions:   1  2  3  4  5  6  7  8  9  

Terminal Aerodrome Forecast

463
FTUS44 KOHX 200500
TAFCSV
TAF
KCSV 200529Z 2006/2106 06004KT P6SM -PLSN BKN050 OVC090
     FM201200 35004KT P6SM BKN040 OVC080
     FM210000 00000KT P6SM SCT040=



Latest METAR

739
SAUS70 KWBC 201400 RRG
MTRCSV
METAR KCSV 201353Z AUTO 00000KT 6SM HZ OVC043 02/M02 A3020 RMK AO2
SLP237 T00171017


USA.gov is the U.S. government's official web portal to all federal, state and local government web resources and services.